Time;durP1;ratioP1;P1;durP2;ratioP2;P2;SDS_P1;SDS_P2;PMS_P1;PMS_P2;Temp;Humidity;BMP_temperature;BMP_pressure;BME280_temperature;BME280_humidity;BME280_pressure;Samples;Min_cycle;Max_cycle;Signal;HPM_P1;HPM_P2
2023/03/07 00:01:44;;;;;;;16.33;5.85;;;3.30;99.90;;;;;;4952777;29;20043;-83
2023/03/07 00:04:10;;;;;;;13.65;5.63;;;3.30;99.90;;;;;;4953969;28;20090;-83
2023/03/07 00:06:35;;;;;;;17.17;6.28;;;3.30;99.90;;;;;;4953676;28;20504;-83
2023/03/07 00:09:02;;;;;;;13.73;4.38;;;3.30;99.90;;;;;;4953170;28;20468;-82
2023/03/07 00:11:28;;;;;;;12.63;4.97;;;3.30;99.90;;;;;;4953446;28;20589;-85
2023/03/07 00:13:54;;;;;;;7.45;3.85;;;3.40;99.90;;;;;;4953866;28;20521;-84
2023/03/07 00:16:22;;;;;;;10.43;4.07;;;3.40;99.90;;;;;;4953809;28;20063;-77
2023/03/07 00:18:48;;;;;;;9.43;3.60;;;3.60;99.90;;;;;;4952871;29;20409;-83
2023/03/07 00:21:16;;;;;;;9.93;3.67;;;3.40;99.90;;;;;;4953721;28;20055;-85
2023/03/07 00:23:43;;;;;;;6.90;2.38;;;3.30;99.90;;;;;;4952840;28;20051;-84
2023/03/07 00:26:18;;;;;;;7.15;3.28;;;3.30;99.90;;;;;;4953357;28;20050;-86
2023/03/07 00:28:49;;;;;;;9.82;3.22;;;3.30;99.90;;;;;;4951978;28;20445;-85
2023/03/07 00:31:16;;;;;;;7.85;3.40;;;3.30;99.90;;;;;;4953472;28;20516;-85
2023/03/07 00:33:41;;;;;;;8.38;3.00;;;3.30;99.90;;;;;;4953254;28;20043;-85
2023/03/07 00:36:15;;;;;;;7.63;3.40;;;3.30;99.90;;;;;;4953645;28;20047;-86
2023/03/07 00:38:41;;;;;;;7.40;3.13;;;3.30;99.90;;;;;;4952990;28;20048;-85
2023/03/07 00:41:13;;;;;;;7.40;3.13;;;3.30;99.90;;;;;;4953267;28;20102;-85
2023/03/07 00:43:39;;;;;;;6.53;3.58;;;3.30;99.90;;;;;;4953153;28;20055;-85
2023/03/07 00:46:05;;;;;;;;;;;3.30;99.90;;;;;;4954162;28;20053;-84
2023/03/07 00:48:36;;;;;;;7.97;3.20;;;3.30;99.90;;;;;;4953250;28;20279;-86
2023/03/07 00:51:02;;;;;;;4.28;1.90;;;3.30;99.90;;;;;;4953371;28;20082;-86
2023/03/07 00:53:29;;;;;;;4.15;1.65;;;3.30;99.90;;;;;;4952729;28;20062;-84
2023/03/07 00:55:59;;;;;;;8.25;1.55;;;3.30;99.90;;;;;;4952912;28;20592;-86
2023/03/07 00:58:30;;;;;;;2.05;1.10;;;3.30;99.90;;;;;;4951837;29;20056;-78
2023/03/07 01:00:56;;;;;;;1.55;1.05;;;3.20;99.90;;;;;;4953355;28;20097;-87
2023/03/07 01:03:22;;;;;;;4.15;1.38;;;3.30;99.90;;;;;;4953079;28;20083;-85
2023/03/07 01:05:48;;;;;;;2.88;1.27;;;3.20;99.90;;;;;;4951879;29;20168;-89
2023/03/07 01:08:15;;;;;;;2.80;1.33;;;3.20;99.90;;;;;;4952032;29;20109;-87
2023/03/07 01:10:41;;;;;;;;;;;3.10;99.90;;;;;;4952946;28;20090;-85
2023/03/07 01:13:06;;;;;;;3.10;1.35;;;3.20;99.90;;;;;;4952981;28;20341;-84
2023/03/07 01:15:32;;;;;;;3.67;1.25;;;4.00;99.90;;;;;;4953135;28;20047;-86
2023/03/07 01:17:58;;;;;;;3.20;1.40;;;3.20;99.90;;;;;;4953176;28;20141;-86
2023/03/07 01:20:24;;;;;;;2.17;1.20;;;3.40;99.90;;;;;;4953324;28;20508;-90
2023/03/07 01:22:50;;;;;;;3.65;1.33;;;3.20;99.90;;;;;;4952453;28;20047;-88
2023/03/07 01:25:15;;;;;;;4.53;1.30;;;3.20;99.90;;;;;;4956383;28;20101;-90
2023/03/07 01:27:41;;;;;;;3.03;1.35;;;3.10;99.90;;;;;;4955552;29;20055;-88
2023/03/07 01:30:08;;;;;;;1.98;1.05;;;3.20;99.90;;;;;;4956892;28;20043;-91
2023/03/07 01:32:33;;;;;;;3.95;1.70;;;3.10;99.90;;;;;;4956465;28;20051;-87
2023/03/07 01:34:59;;;;;;;4.57;1.48;;;3.10;99.90;;;;;;4955794;29;20082;-89
2023/03/07 01:37:25;;;;;;;1.42;0.90;;;3.10;99.90;;;;;;4956076;28;20051;-91
2023/03/07 01:39:52;;;;;;;4.88;1.30;;;3.10;99.90;;;;;;4955307;29;20051;-90
2023/03/07 01:42:18;;;;;;;3.03;1.50;;;3.10;99.90;;;;;;4956895;28;20051;-88
2023/03/07 01:45:03;;;;;;;2.55;1.23;;;3.10;99.90;;;;;;4956149;28;20051;-88
2023/03/07 01:47:28;;;;;;;3.63;1.30;;;3.10;99.90;;;;;;4956682;28;20441;-78
2023/03/07 01:49:54;;;;;;;2.15;1.10;;;3.10;99.90;;;;;;4956284;28;20051;-89
2023/03/07 01:52:45;;;;;;;4.93;1.45;;;3.10;99.90;;;;;;4956259;28;20102;-89
2023/03/07 01:55:16;;;;;;;2.95;1.45;;;3.10;99.90;;;;;;4957611;28;20556;-88
2023/03/07 01:57:44;;;;;;;3.60;1.95;;;3.10;99.90;;;;;;4956049;28;20446;-89
2023/03/07 02:00:17;;;;;;;3.50;1.35;;;3.00;99.90;;;;;;4956397;28;20043;-91
2023/03/07 02:02:48;;;;;;;3.25;0.98;;;3.10;99.90;;;;;;4955933;28;20094;-86
2023/03/07 02:05:25;;;;;;;2.00;1.48;;;3.10;99.90;;;;;;4956034;28;20050;-85
2023/03/07 02:07:51;;;;;;;;;;;3.00;99.90;;;;;;4954798;28;20589;-89
2023/03/07 02:10:20;;;;;;;2.67;0.97;;;3.00;99.90;;;;;;4955750;28;19933;-86
2023/03/07 02:12:47;;;;;;;1.00;1.00;;;3.00;99.90;;;;;;4954734;29;20114;-85
2023/03/07 02:15:14;;;;;;;1.52;1.00;;;3.00;99.90;;;;;;4956124;28;20087;-89
2023/03/07 02:17:41;;;;;;;4.50;1.20;;;2.90;99.90;;;;;;4954436;29;20053;-88
2023/03/07 02:20:13;;;;;;;2.05;0.88;;;2.90;99.90;;;;;;4955945;28;20051;-87
2023/03/07 02:22:39;;;;;;;1.38;1.00;;;2.80;99.90;;;;;;4955208;28;20051;-89
2023/03/07 02:25:26;;;;;;;4.32;1.00;;;3.10;99.90;;;;;;4955506;28;20086;-86
2023/03/07 02:27:54;;;;;;;21.80;3.10;;;2.80;99.90;;;;;;4954672;29;20473;-89
2023/03/07 02:30:20;;;;;;;3.33;1.50;;;3.10;99.90;;;;;;4955619;28;20043;-88
2023/03/07 02:32:45;;;;;;;7.60;1.40;;;2.70;99.90;;;;;;4955091;28;20167;-89
2023/03/07 02:35:22;;;;;;;5.32;1.45;;;2.70;99.90;;;;;;4954651;28;20074;-88
2023/03/07 02:37:55;;;;;;;6.53;1.48;;;2.60;99.90;;;;;;4953720;29;20054;-88
2023/03/07 02:40:23;;;;;;;3.63;1.33;;;2.70;99.90;;;;;;4955252;28;20070;-88
2023/03/07 02:42:52;;;;;;;5.45;1.58;;;2.60;99.90;;;;;;4955280;28;20123;-83
2023/03/07 02:45:18;;;;;;;4.57;1.55;;;3.10;99.90;;;;;;4955600;28;20412;-88
2023/03/07 02:47:45;;;;;;;3.63;1.50;;;2.60;99.90;;;;;;4953804;29;20134;-87
2023/03/07 02:50:12;;;;;;;2.10;1.15;;;2.60;99.90;;;;;;4955323;28;20043;-87
2023/03/07 02:52:38;;;;;;;1.42;1.20;;;2.90;99.90;;;;;;4954729;28;20073;-79
2023/03/07 02:55:05;;;;;;;;;;;2.50;99.90;;;;;;4955452;28;20282;-88
2023/03/07 02:57:30;;;;;;;2.58;1.30;;;2.50;99.90;;;;;;4955025;28;20443;-88
2023/03/07 02:59:56;;;;;;;5.72;1.40;;;2.50;99.90;;;;;;4954100;29;20090;-87
2023/03/07 03:02:22;;;;;;;4.60;1.05;;;2.50;99.90;;;;;;4955222;28;20105;-88
2023/03/07 03:04:47;;;;;;;3.00;1.08;;;2.50;99.90;;;;;;4954712;28;20047;-86
2023/03/07 03:07:13;;;;;;;3.30;1.55;;;2.50;99.90;;;;;;4937741;29;20053;-82
2023/03/07 03:09:39;;;;;;;7.30;1.95;;;2.50;99.90;;;;;;4954070;28;20051;-78
2023/03/07 03:12:05;;;;;;;5.68;1.33;;;2.50;99.90;;;;;;4953928;28;20404;-88
2023/03/07 03:14:31;;;;;;;3.45;1.25;;;2.50;99.90;;;;;;4955043;28;20481;-84
2023/03/07 03:16:57;;;;;;;3.40;1.27;;;2.50;99.90;;;;;;4954644;28;20047;-86
2023/03/07 03:19:22;;;;;;;4.25;1.20;;;2.60;99.90;;;;;;4954824;28;20055;-86
2023/03/07 03:21:48;;;;;;;0.90;0.90;;;2.50;99.90;;;;;;4954566;28;20043;-86
2023/03/07 03:24:14;;;;;;;2.78;1.20;;;2.60;99.90;;;;;;4954022;28;20058;-85
2023/03/07 03:26:40;;;;;;;1.17;0.85;;;2.50;99.90;;;;;;4954573;28;20043;-78
2023/03/07 03:29:05;;;;;;;5.28;0.98;;;2.50;99.90;;;;;;4954495;28;20054;-88
2023/03/07 03:31:32;;;;;;;5.93;1.13;;;2.60;99.90;;;;;;4954717;28;20042;-89
2023/03/07 03:33:57;;;;;;;;;;;2.50;99.90;;;;;;4953985;28;20143;-86
2023/03/07 03:36:24;;;;;;;5.70;1.00;;;3.10;99.90;;;;;;4954566;28;20329;-87
2023/03/07 03:38:55;;;;;;;2.15;0.93;;;2.50;99.90;;;;;;4953187;28;20130;-84
2023/03/07 03:41:22;;;;;;;7.13;1.33;;;3.00;99.90;;;;;;4954167;28;20126;-85
2023/03/07 03:43:47;;;;;;;2.28;0.70;;;2.40;99.90;;;;;;4954158;28;20098;-88
2023/03/07 03:46:13;;;;;;;5.85;1.25;;;3.00;99.90;;;;;;4954453;28;20050;-87
2023/03/07 03:48:39;;;;;;;4.82;1.10;;;2.80;99.90;;;;;;4954163;28;20129;-88
2023/03/07 03:51:15;;;;;;;4.72;1.30;;;2.40;99.90;;;;;;4953836;28;20139;-87
2023/03/07 03:53:41;;;;;;;5.20;1.35;;;2.40;99.90;;;;;;4954182;28;20094;-87
2023/03/07 03:56:10;;;;;;;7.15;1.10;;;2.40;99.90;;;;;;4953693;28;20087;-86
2023/03/07 03:58:37;;;;;;;3.88;1.25;;;2.40;99.90;;;;;;4954220;28;20404;-85
2023/03/07 04:01:08;;;;;;;4.97;1.25;;;2.40;99.90;;;;;;4953887;28;20638;-85
2023/03/07 04:03:36;;;;;;;14.60;1.00;;;2.40;99.90;;;;;;4954131;28;20047;-85
2023/03/07 04:06:10;;;;;;;8.32;1.52;;;2.40;99.90;;;;;;4953785;28;20054;-88
2023/03/07 04:08:37;;;;;;;5.53;1.40;;;2.40;99.90;;;;;;4953505;28;20043;-85
2023/03/07 04:11:04;;;;;;;5.95;1.33;;;3.00;99.90;;;;;;4952084;29;20296;-87
2023/03/07 04:13:31;;;;;;;10.15;1.63;;;2.50;99.90;;;;;;4953865;28;20047;-85
2023/03/07 04:15:57;;;;;;;5.32;1.35;;;2.50;99.90;;;;;;4953711;28;20055;-86
2023/03/07 04:18:23;;;;;;;5.55;1.30;;;2.60;99.90;;;;;;4953984;28;20055;-87
2023/03/07 04:20:50;;;;;;;8.15;1.20;;;2.60;99.90;;;;;;4953525;28;20047;-85
2023/03/07 04:23:18;;;;;;;6.60;1.63;;;2.60;99.90;;;;;;4953560;28;20065;-89
2023/03/07 04:25:48;;;;;;;4.20;1.40;;;2.60;99.90;;;;;;4953570;28;20437;-87
2023/03/07 04:28:16;;;;;;;4.75;1.08;;;2.60;99.90;;;;;;4953733;28;20067;-88
2023/03/07 04:30:41;;;;;;;4.72;2.38;;;3.10;99.90;;;;;;4953535;28;20047;-88
2023/03/07 04:33:07;;;;;;;2.70;1.08;;;2.60;99.90;;;;;;4953313;28;20294;-88
2023/03/07 04:35:33;;;;;;;2.53;1.08;;;2.60;99.90;;;;;;4953735;28;20609;-86
2023/03/07 04:37:58;;;;;;;3.25;0.80;;;2.70;99.90;;;;;;4951902;29;20126;-90
2023/03/07 04:40:24;;;;;;;5.05;1.00;;;2.70;99.90;;;;;;4953684;28;20070;-89
2023/03/07 04:42:50;;;;;;;3.92;1.23;;;2.70;99.90;;;;;;4952526;29;20531;-87
2023/03/07 04:45:16;;;;;;;8.65;1.73;;;2.60;99.90;;;;;;4953670;28;20382;-91
2023/03/07 04:47:41;;;;;;;9.55;0.95;;;2.60;99.90;;;;;;4953613;28;20054;-90
2023/03/07 04:50:07;;;;;;;9.57;1.45;;;2.60;99.90;;;;;;4953416;28;20047;-86
2023/03/07 04:52:34;;;;;;;11.13;1.13;;;2.60;99.90;;;;;;4953128;28;20108;-90
2023/03/07 04:55:00;;;;;;;9.80;1.25;;;2.60;99.90;;;;;;4952833;28;20559;-89
2023/03/07 04:57:26;;;;;;;5.20;1.00;;;2.80;99.90;;;;;;4953491;28;20095;-90
2023/03/07 04:59:51;;;;;;;4.03;1.58;;;2.50;99.90;;;;;;4939297;29;20059;-86
2023/03/07 05:02:17;;;;;;;5.80;1.63;;;2.50;99.90;;;;;;4957494;28;20054;-90
2023/03/07 05:04:43;;;;;;;5.68;1.00;;;2.50;99.90;;;;;;4957398;28;20485;-90
2023/03/07 05:07:09;;;;;;;11.50;1.60;;;2.50;99.90;;;;;;4957053;28;20047;-83
2023/03/07 05:09:35;;;;;;;2.55;1.00;;;2.50;99.90;;;;;;4955731;29;20051;-90
2023/03/07 05:12:00;;;;;;;7.78;1.50;;;2.50;99.90;;;;;;4957101;28;20452;-91
2023/03/07 05:14:26;;;;;;;3.58;0.93;;;2.40;99.90;;;;;;4957039;28;20480;-83
2023/03/07 05:16:52;;;;;;;4.57;1.17;;;2.40;99.90;;;;;;4956170;29;20477;-78
2023/03/07 05:19:17;;;;;;;4.25;1.25;;;2.50;99.90;;;;;;4957150;28;20469;-88
2023/03/07 05:21:43;;;;;;;7.50;1.20;;;2.60;99.90;;;;;;4957063;28;20054;-90
2023/03/07 05:24:09;;;;;;;8.57;1.30;;;2.50;99.90;;;;;;4956056;28;20047;-92
2023/03/07 05:26:35;;;;;;;8.80;1.02;;;2.40;99.90;;;;;;4957214;28;20050;-89
2023/03/07 05:29:01;;;;;;;8.82;1.30;;;2.50;99.90;;;;;;4956688;28;20043;-86
2023/03/07 05:31:27;;;;;;;7.05;1.30;;;2.40;99.90;;;;;;4956903;28;20082;-91
2023/03/07 05:33:53;;;;;;;3.95;1.08;;;2.40;99.90;;;;;;4955873;29;20050;-78
2023/03/07 05:36:19;;;;;;;7.40;1.48;;;2.40;99.90;;;;;;4956892;28;20055;-91
2023/03/07 05:38:44;;;;;;;2.47;0.95;;;3.00;99.90;;;;;;4956084;28;20130;-90
2023/03/07 05:41:10;;;;;;;4.95;1.25;;;2.70;99.90;;;;;;4956114;28;20043;-88
2023/03/07 05:43:36;;;;;;;9.43;1.23;;;2.60;99.90;;;;;;4957181;28;20043;-91
2023/03/07 05:46:04;;;;;;;8.18;1.38;;;2.40;99.90;;;;;;4956459;28;20493;-90
2023/03/07 05:48:30;;;;;;;6.63;1.30;;;2.40;99.90;;;;;;4955578;29;20043;-90
2023/03/07 05:51:02;;;;;;;9.70;1.92;;;2.50;99.90;;;;;;4956238;28;20043;-79
2023/03/07 05:53:27;;;;;;;2.60;1.30;;;2.40;99.90;;;;;;4956275;28;20055;-89
2023/03/07 05:55:53;;;;;;;10.18;1.20;;;2.40;99.90;;;;;;4956092;28;20051;-91
2023/03/07 05:58:19;;;;;;;7.05;1.00;;;2.40;99.90;;;;;;4955575;28;20051;-92
2023/03/07 06:00:44;;;;;;;9.70;1.52;;;2.40;99.90;;;;;;4956862;28;20051;-88
2023/03/07 06:03:10;;;;;;;8.75;1.35;;;2.40;99.90;;;;;;4956077;28;20102;-89
2023/03/07 06:05:35;;;;;;;2.92;0.90;;;2.50;99.90;;;;;;4956296;28;20047;-90
2023/03/07 06:08:02;;;;;;;4.68;1.10;;;2.50;99.90;;;;;;4955844;28;20054;-89
2023/03/07 06:10:28;;;;;;;5.88;1.92;;;2.40;99.90;;;;;;4955597;28;20469;-89
2023/03/07 06:12:54;;;;;;;3.72;0.82;;;3.00;99.90;;;;;;4956384;28;20051;-90
2023/03/07 06:15:20;;;;;;;8.60;1.17;;;2.50;99.90;;;;;;4955617;28;20047;-82
2023/03/07 06:17:46;;;;;;;5.32;1.13;;;2.50;99.90;;;;;;4954979;29;20047;-88
2023/03/07 06:20:13;;;;;;;4.28;0.82;;;2.50;99.90;;;;;;4955845;28;20039;-89
2023/03/07 06:22:38;;;;;;;1.38;0.70;;;2.50;99.90;;;;;;4954720;28;20549;-85
2023/03/07 06:25:05;;;;;;;5.25;1.23;;;2.50;99.90;;;;;;4955374;28;20051;-90
2023/03/07 06:27:35;;;;;;;4.43;1.13;;;2.50;99.90;;;;;;4956040;28;20086;-89
2023/03/07 06:30:04;;;;;;;6.32;1.20;;;2.50;99.90;;;;;;4955529;28;20421;-91
2023/03/07 06:32:30;;;;;;;6.30;1.23;;;2.50;99.90;;;;;;4955743;28;20059;-88
2023/03/07 06:34:56;;;;;;;5.20;2.17;;;2.50;99.90;;;;;;4955845;28;20055;-88
2023/03/07 06:37:22;;;;;;;9.57;2.13;;;2.50;99.90;;;;;;4955387;28;20040;-91
2023/03/07 06:39:48;;;;;;;8.52;1.00;;;2.50;99.90;;;;;;4955440;28;20589;-90
2023/03/07 06:42:14;;;;;;;3.10;0.80;;;2.60;99.90;;;;;;4953834;29;20338;-87
2023/03/07 06:44:40;;;;;;;;;;;2.60;99.90;;;;;;4956112;28;20130;-89
2023/03/07 06:47:05;;;;;;;7.78;1.05;;;2.60;99.90;;;;;;4955275;28;19964;-88
2023/03/07 06:49:31;;;;;;;3.63;1.25;;;2.60;99.90;;;;;;4955412;28;20097;-88
2023/03/07 06:51:57;;;;;;;5.32;1.10;;;2.60;99.90;;;;;;4955426;28;20064;-87
2023/03/07 06:54:23;;;;;;;4.70;1.38;;;2.60;99.90;;;;;;4954435;28;20047;-88
2023/03/07 06:56:50;;;;;;;6.68;1.25;;;2.60;99.90;;;;;;4955532;28;20399;-89
2023/03/07 06:59:16;;;;;;;10.80;0.98;;;2.90;99.90;;;;;;4954500;28;20059;-90
2023/03/07 07:01:42;;;;;;;2.35;0.90;;;2.50;99.90;;;;;;4955325;28;20110;-89
2023/03/07 07:04:09;;;;;;;3.78;1.05;;;2.50;99.90;;;;;;4954469;28;20142;-89
2023/03/07 07:06:35;;;;;;;8.15;0.93;;;2.50;99.90;;;;;;4954914;28;20150;-89
2023/03/07 07:09:03;;;;;;;2.75;0.80;;;2.50;99.90;;;;;;4954067;28;20082;-79
2023/03/07 07:11:29;;;;;;;2.97;0.90;;;2.50;99.90;;;;;;4954890;28;20047;-83
2023/03/07 07:13:55;;;;;;;1.15;0.75;;;2.50;99.90;;;;;;4955128;28;20058;-83
2023/03/07 07:16:21;;;;;;;3.35;1.40;;;2.50;99.90;;;;;;4954441;28;20663;-88
2023/03/07 07:18:50;;;;;;;6.32;1.02;;;2.50;99.90;;;;;;4954649;28;20133;-85
2023/03/07 07:21:16;;;;;;;2.28;0.77;;;2.50;99.90;;;;;;4953815;28;20091;-81
2023/03/07 07:23:42;;;;;;;;;;;2.50;99.90;;;;;;4954821;28;20091;-83
2023/03/07 07:26:08;;;;;;;7.53;1.20;;;2.60;99.90;;;;;;4953977;28;19965;-82
2023/03/07 07:28:34;;;;;;;1.95;1.00;;;2.50;99.90;;;;;;4954785;28;20102;-84
2023/03/07 07:31:02;;;;;;;6.57;1.27;;;2.50;99.90;;;;;;4954777;28;20043;-80
2023/03/07 07:33:29;;;;;;;4.30;0.93;;;2.50;99.90;;;;;;4954430;28;20039;-83
2023/03/07 07:35:55;;;;;;;1.35;0.80;;;2.50;99.90;;;;;;4953196;28;20502;-83
2023/03/07 07:38:20;;;;;;;5.13;1.40;;;2.40;99.90;;;;;;4953655;28;20118;-81
2023/03/07 07:40:46;;;;;;;1.10;0.60;;;2.40;99.90;;;;;;4954278;28;20474;-80
2023/03/07 07:43:16;;;;;;;3.30;0.80;;;2.40;99.90;;;;;;4954590;28;20050;-81
2023/03/07 07:45:42;;;;;;;3.38;0.77;;;2.60;99.90;;;;;;4954408;28;20066;-80
2023/03/07 07:48:08;;;;;;;4.03;1.02;;;2.90;99.90;;;;;;4953763;28;20130;-80
2023/03/07 07:50:34;;;;;;;1.98;0.90;;;2.40;99.90;;;;;;4954321;28;20155;-81
2023/03/07 07:53:00;;;;;;;0.57;0.57;;;2.40;99.90;;;;;;4954008;28;20101;-80
2023/03/07 07:55:25;;;;;;;4.78;0.70;;;2.40;99.90;;;;;;4953499;28;20101;-80
2023/03/07 07:57:51;;;;;;;1.98;0.88;;;2.40;99.90;;;;;;4954281;28;20059;-80
2023/03/07 08:00:20;;;;;;;4.38;1.70;;;2.40;99.90;;;;;;4953946;28;20501;-81
2023/03/07 08:02:50;;;;;;;3.42;0.88;;;2.40;99.90;;;;;;4954074;28;20062;-80
2023/03/07 08:05:17;;;;;;;8.98;1.58;;;2.40;99.90;;;;;;4953803;28;20039;-80
2023/03/07 08:07:43;;;;;;;3.72;1.30;;;2.40;99.90;;;;;;4953437;28;20053;-79
2023/03/07 08:10:12;;;;;;;1.17;0.73;;;2.50;99.90;;;;;;4953272;28;20493;-80
2023/03/07 08:12:37;;;;;;;8.20;1.00;;;2.40;99.90;;;;;;4954047;28;20051;-80
2023/03/07 08:15:04;;;;;;;4.28;0.88;;;2.60;99.90;;;;;;4954023;28;20043;-80
2023/03/07 08:17:29;;;;;;;1.33;0.63;;;2.40;99.90;;;;;;4968751;28;20057;-80
2023/03/07 08:20:00;;;;;;;3.17;0.90;;;2.30;99.90;;;;;;4953960;28;20130;-80
2023/03/07 08:22:26;;;;;;;4.05;0.80;;;2.30;99.90;;;;;;4953353;28;20043;-80
2023/03/07 08:24:51;;;;;;;;;;;2.30;99.90;;;;;;4953847;28;20109;-88
2023/03/07 08:27:17;;;;;;;4.13;0.75;;;2.20;99.90;;;;;;4953378;28;19922;-81
2023/03/07 08:29:47;;;;;;;1.42;0.93;;;2.20;99.90;;;;;;4953639;28;20055;-81
2023/03/07 08:32:14;;;;;;;1.85;1.00;;;2.10;99.90;;;;;;4953426;28;20477;-82
2023/03/07 08:34:39;;;;;;;3.95;0.75;;;2.20;99.90;;;;;;4953740;28;20047;-81
2023/03/07 08:37:05;;;;;;;1.45;1.00;;;2.10;99.90;;;;;;4953712;28;20043;-82
2023/03/07 08:39:31;;;;;;;5.10;1.02;;;2.10;99.90;;;;;;4951462;29;20490;-84
2023/03/07 08:41:56;;;;;;;9.35;1.42;;;2.10;99.90;;;;;;4952719;29;20055;-82
2023/03/07 08:44:22;;;;;;;4.43;1.00;;;2.30;99.90;;;;;;4952623;28;20118;-85
2023/03/07 08:46:48;;;;;;;2.78;1.00;;;2.10;99.90;;;;;;4953711;28;20047;-86
2023/03/07 08:49:13;;;;;;;1.75;1.13;;;2.20;99.90;;;;;;4951955;29;20404;-86
2023/03/07 08:51:39;;;;;;;5.07;1.42;;;2.20;99.90;;;;;;4953140;28;20082;-86
2023/03/07 08:54:05;;;;;;;5.47;1.17;;;2.70;99.90;;;;;;4952717;28;20057;-83
2023/03/07 08:56:30;;;;;;;7.47;1.25;;;2.20;99.90;;;;;;4951951;28;20477;-87
2023/03/07 08:58:56;;;;;;;1.40;0.82;;;2.40;99.90;;;;;;4951985;29;20066;-87
2023/03/07 09:01:22;;;;;;;6.10;1.10;;;2.30;99.90;;;;;;4952793;28;20512;-87
2023/03/07 09:03:47;;;;;;;4.65;0.80;;;2.60;99.90;;;;;;4953400;28;20051;-87
2023/03/07 09:06:18;;;;;;;1.55;1.02;;;2.40;99.90;;;;;;4952710;28;20083;-85
2023/03/07 09:08:46;;;;;;;4.20;1.02;;;2.60;99.90;;;;;;4951235;29;20066;-88
2023/03/07 09:11:12;;;;;;;2.13;0.77;;;3.00;99.90;;;;;;4952500;28;20043;-79
2023/03/07 09:13:38;;;;;;;11.98;1.38;;;2.50;99.90;;;;;;4952953;28;20074;-81
2023/03/07 09:16:05;;;;;;;6.05;1.23;;;2.60;99.90;;;;;;4953089;28;20047;-88
2023/03/07 09:18:31;;;;;;;6.40;1.35;;;2.60;99.90;;;;;;4952339;28;20130;-89
2023/03/07 09:21:01;;;;;;;4.13;1.20;;;3.30;99.90;;;;;;4951229;28;20047;-89
2023/03/07 09:23:27;;;;;;;9.20;2.22;;;2.70;99.90;;;;;;4951848;28;20051;-86
2023/03/07 09:25:52;;;;;;;4.90;0.88;;;3.00;99.90;;;;;;4951487;29;20054;-88
2023/03/07 09:28:18;;;;;;;4.93;1.35;;;2.80;99.90;;;;;;4951461;29;20401;-83
2023/03/07 09:30:44;;;;;;;8.77;1.23;;;2.80;99.90;;;;;;4952831;28;20596;-82
2023/03/07 09:33:09;;;;;;;4.53;1.63;;;3.10;99.90;;;;;;4951714;29;20086;-84
2023/03/07 09:35:37;;;;;;;2.95;1.35;;;3.80;99.90;;;;;;4952215;28;20130;-79
2023/03/07 09:38:03;;;;;;;4.20;1.42;;;2.90;99.90;;;;;;4951291;29;20211;-78
2023/03/07 09:40:29;;;;;;;7.53;1.20;;;3.00;99.90;;;;;;4952109;28;20140;-82
2023/03/07 09:43:04;;;;;;;6.47;1.27;;;3.00;99.90;;;;;;4952597;29;20051;-83
2023/03/07 09:45:51;;;;;;;2.85;0.98;;;3.10;99.90;;;;;;4955323;28;20059;-81
2023/03/07 09:48:42;;;;;;;5.28;1.05;;;3.10;99.90;;;;;;4955246;29;20055;-78
2023/03/07 09:51:30;;;;;;;4.85;1.17;;;3.10;99.90;;;;;;4956490;28;20051;-87
2023/03/07 09:54:08;;;;;;;2.17;0.80;;;3.10;99.90;;;;;;4956272;28;20408;-81
2023/03/07 09:56:41;;;;;;;9.23;1.25;;;3.20;99.90;;;;;;4955985;28;20047;-86
2023/03/07 09:59:12;;;;;;;7.82;1.25;;;3.30;99.90;;;;;;4956524;28;20409;-82
2023/03/07 10:01:40;;;;;;;2.15;0.75;;;3.30;99.90;;;;;;4956030;28;20516;-84
2023/03/07 10:04:13;;;;;;;3.63;1.10;;;3.40;99.90;;;;;;4955845;28;20409;-83
2023/03/07 10:06:41;;;;;;;1.30;0.68;;;3.50;99.90;;;;;;4954762;29;20069;-84
2023/03/07 10:09:13;;;;;;;2.30;0.98;;;3.60;99.90;;;;;;4955292;28;20074;-82
2023/03/07 10:12:27;;;;;;;5.07;1.35;;;3.60;99.90;;;;;;4955818;28;20065;-81
2023/03/07 10:15:10;;;;;;;3.40;1.30;;;3.60;99.90;;;;;;4964927;28;20489;-84
2023/03/07 10:17:44;;;;;;;4.15;0.65;;;3.70;99.90;;;;;;4955359;28;20046;-84
2023/03/07 10:20:22;;;;;;;4.47;1.00;;;3.80;99.90;;;;;;4955874;28;20051;-82
2023/03/07 10:23:20;;;;;;;4.05;0.70;;;3.80;99.90;;;;;;4955484;28;20051;-82
2023/03/07 10:25:52;;;;;;;;;;;3.80;99.90;;;;;;4955821;28;20540;-81
2023/03/07 10:28:28;;;;;;;1.83;0.75;;;3.90;99.90;;;;;;4955728;28;19923;-76
2023/03/07 10:30:57;;;;;;;;;;;4.00;99.90;;;;;;4956326;28;20126;-81
2023/03/07 10:33:24;;;;;;;3.72;1.10;;;4.00;99.90;;;;;;4954372;29;19926;-79
2023/03/07 10:36:14;;;;;;;4.35;0.63;;;4.40;99.90;;;;;;4955713;28;20126;-79
2023/03/07 10:38:49;;;;;;;1.73;0.70;;;4.00;99.90;;;;;;4956375;28;20067;-79
2023/03/07 10:41:17;;;;;;;2.58;1.10;;;4.10;99.90;;;;;;4955251;28;20051;-78
2023/03/07 10:43:44;;;;;;;1.05;0.60;;;3.90;99.90;;;;;;4955626;28;20051;-79
2023/03/07 10:46:11;;;;;;;2.13;0.65;;;3.80;99.90;;;;;;4955677;28;20050;-83
2023/03/07 10:49:07;;;;;;;3.28;1.15;;;3.60;99.90;;;;;;4954521;28;20078;-80
2023/03/07 10:52:14;;;;;;;1.80;0.95;;;3.50;99.90;;;;;;4954247;28;20051;-81
2023/03/07 10:54:40;;;;;;;1.80;0.77;;;3.50;99.90;;;;;;4954285;28;20047;-81
2023/03/07 10:57:15;;;;;;;1.17;0.70;;;3.60;99.90;;;;;;4953954;28;20051;-83
2023/03/07 10:59:49;;;;;;;3.75;1.10;;;3.60;99.90;;;;;;4969372;28;20066;-81
2023/03/07 11:02:43;;;;;;;1.58;0.57;;;3.70;99.90;;;;;;4954623;28;20053;-82
2023/03/07 11:05:31;;;;;;;3.92;0.95;;;3.80;99.90;;;;;;4954186;28;20098;-85
2023/03/07 11:07:58;;;;;;;1.45;0.63;;;3.90;99.90;;;;;;4953856;28;20062;-83
2023/03/07 11:10:35;;;;;;;1.65;0.40;;;4.00;99.90;;;;;;4953637;28;20053;-83
2023/03/07 11:13:22;;;;;;;0.95;0.40;;;4.10;99.90;;;;;;4954411;28;20087;-85
2023/03/07 11:15:48;;;;;;;3.10;0.55;;;4.20;99.90;;;;;;4954056;29;20043;-82
2023/03/07 11:18:27;;;;;;;1.13;0.47;;;4.30;99.90;;;;;;4953017;29;20062;-80
2023/03/07 11:20:53;;;;;;;1.88;0.75;;;4.40;99.90;;;;;;4953946;28;20039;-84
2023/03/07 11:23:23;;;;;;;2.80;0.80;;;4.50;99.90;;;;;;4953008;29;20512;-89
2023/03/07 11:25:50;;;;;;;1.83;0.73;;;4.60;99.90;;;;;;4954403;28;20059;-84
2023/03/07 11:28:28;;;;;;;2.53;0.70;;;4.60;99.90;;;;;;4954755;28;20054;-83
2023/03/07 11:31:04;;;;;;;3.30;0.65;;;4.80;99.90;;;;;;4954582;28;20043;-82
2023/03/07 11:33:36;;;;;;;3.72;1.10;;;4.80;99.90;;;;;;4954452;28;20134;-84
2023/03/07 11:36:15;;;;;;;4.75;1.38;;;4.80;99.90;;;;;;4954745;28;20058;-85
2023/03/07 11:39:01;;;;;;;2.55;1.42;;;4.90;99.90;;;;;;4953735;28;20047;-84
2023/03/07 11:41:37;;;;;;;3.97;1.02;;;4.90;99.90;;;;;;4952642;28;20561;-81
2023/03/07 11:44:25;;;;;;;8.60;1.50;;;5.00;99.90;;;;;;4954651;28;20054;-85
2023/03/07 11:47:22;;;;;;;9.63;1.80;;;5.00;99.90;;;;;;4953401;29;20130;-83
2023/03/07 11:50:04;;;;;;;;;;;5.10;99.90;;;;;;4954213;28;20130;-83
2023/03/07 11:52:29;;;;;;;2.70;0.77;;;5.10;99.90;;;;;;4953360;28;19933;-85
2023/03/07 11:55:10;;;;;;;4.30;1.48;;;5.40;99.90;;;;;;4953753;28;20043;-84
2023/03/07 11:58:09;;;;;;;3.28;1.10;;;5.50;99.90;;;;;;4952760;28;20109;-85
2023/03/07 12:00:46;;;;;;;2.85;0.80;;;5.70;99.90;;;;;;4953757;28;20134;-84
2023/03/07 12:03:40;;;;;;;1.85;0.85;;;5.80;99.90;;;;;;4953880;28;20043;-85
2023/03/07 12:06:23;;;;;;;4.45;1.20;;;6.00;99.90;;;;;;4954003;28;20055;-85
2023/03/07 12:08:57;;;;;;;1.52;0.80;;;6.20;99.90;;;;;;4936133;29;20375;-84
2023/03/07 12:11:36;;;;;;;7.88;1.17;;;6.20;99.90;;;;;;4953646;28;20046;-84
2023/03/07 12:14:27;;;;;;;0.73;0.50;;;6.30;99.90;;;;;;4954115;28;20468;-85
2023/03/07 12:17:27;;;;;;;4.13;0.85;;;6.10;99.90;;;;;;4955340;28;20055;-85
2023/03/07 12:19:58;;;;;;;4.63;0.98;;;5.30;99.90;;;;;;4953510;28;20059;-84
2023/03/07 12:22:23;;;;;;;6.63;1.02;;;4.50;99.90;;;;;;4953372;28;20043;-81
2023/03/07 12:25:20;;;;;;;3.95;0.93;;;3.90;99.90;;;;;;4952896;28;20588;-82
2023/03/07 12:27:48;;;;;;;4.78;0.73;;;3.40;99.90;;;;;;4953542;28;20055;-84
2023/03/07 12:30:19;;;;;;;3.28;0.90;;;3.00;99.90;;;;;;4953789;28;20126;-83
2023/03/07 12:32:45;;;;;;;2.33;1.00;;;2.80;99.90;;;;;;4953382;28;20253;-83
2023/03/07 12:35:48;;;;;;;3.40;0.80;;;2.70;99.90;;;;;;4953861;28;20086;-83
2023/03/07 12:38:40;;;;;;;2.80;0.75;;;2.60;99.90;;;;;;4953208;28;20047;-83
2023/03/07 12:41:16;;;;;;;4.30;1.15;;;2.60;99.90;;;;;;4960695;28;20055;-83
2023/03/07 12:43:44;;;;;;;;;;;2.50;99.90;;;;;;4953701;28;20051;-85
2023/03/07 12:46:36;;;;;;;1.27;0.77;;;2.40;99.90;;;;;;4952737;29;19922;-86
2023/03/07 12:49:22;;;;;;;4.00;0.80;;;2.40;99.90;;;;;;4953365;28;20057;-81
2023/03/07 12:51:58;;;;;;;6.20;0.75;;;2.20;99.90;;;;;;4951423;29;20449;-80
2023/03/07 12:54:35;;;;;;;;;;;2.10;99.90;;;;;;4953212;28;20057;-81
2023/03/07 12:57:25;;;;;;;3.85;1.00;;;2.10;99.90;;;;;;4953557;28;20047;-87
2023/03/07 12:59:55;;;;;;;2.45;0.75;;;2.10;99.90;;;;;;4952658;28;20117;-89
2023/03/07 13:02:31;;;;;;;2.40;0.70;;;2.40;99.90;;;;;;4953067;28;20048;-85
2023/03/07 13:04:58;;;;;;;5.28;1.08;;;2.20;99.90;;;;;;4951907;29;20058;-90
2023/03/07 13:07:33;;;;;;;4.32;0.80;;;2.30;99.90;;;;;;4952117;28;20114;-88
2023/03/07 13:10:04;;;;;;;6.68;1.20;;;2.30;99.90;;;;;;4951634;28;20155;-90
2023/03/07 13:12:35;;;;;;;5.88;1.10;;;2.30;99.90;;;;;;4952364;28;20086;-85
2023/03/07 13:15:04;;;;;;;4.10;1.10;;;2.30;99.90;;;;;;4952644;28;20130;-89